Archival Weather

Chicago O'Hare International

Chicago, Illinois (KORD)

Report from: Friday, September 23, 2022 8:10 AM CDT
Current time: Sunday, December 4, 2022 6:12 AM CST

Current weather
Weather history
Weather forecast

Temperature11.7°C (53.1°F)
Dew point7.2°C (45.0°F)
Winds 6 kts (3.1 m/s, 6.9 mph) South (170°)
Visibility10 mi. (16.1 km)
Clouds Few clouds 2,500 ft. (762 m)
Scattered clouds 3,200 ft. (975 m)
Ceiling: Broken clouds 25,000 ft. (7,620 m)
Altimeter30.26 in.Hg (1025 mB)
Relative humidity74 %
Density altitude-634 ft. (-193 m)
Remarks Automated weather observing station with precipitation discriminator
Flight conditions Visual Meteorological Conditions
Raw dataKORD 231310Z 17006KT 10SM FEW025 SCT032 BKN250 12/07 A3026 RMK AO2 T01170072
An error has occurred. This application may no longer respond until reloaded. Reload 🗙